Time;durP1;ratioP1;P1;durP2;ratioP2;P2;SDS_P1;SDS_P2;PMS_P1;PMS_P2;Temp;Humidity;BMP_temperature;BMP_pressure;BME280_temperature;BME280_humidity;BME280_pressure;Samples;Min_cycle;Max_cycle;Signal;HPM_P1;HPM_P2
2023/06/02 00:01:09;;;;;;;4.20;3.50;;;;;;;18.22;52.99;97964.53;5013823;28;20203;-73
2023/06/02 00:03:37;;;;;;;6.13;3.23;;;;;;;18.26;51.58;97966.44;5013793;28;20297;-73
2023/06/02 00:06:08;;;;;;;4.83;3.33;;;;;;;18.19;53.40;97963.19;5013494;28;20325;-73
2023/06/02 00:08:38;;;;;;;3.77;3.47;;;;;;;18.16;51.96;97962.94;5013396;28;20716;-73
2023/06/02 00:11:05;;;;;;;4.80;3.40;;;;;;;18.09;52.46;97955.13;5013714;28;20206;-73
2023/06/02 00:13:32;;;;;;;4.53;3.40;;;;;;;18.09;51.82;97960.50;5013332;28;20206;-73
2023/06/02 00:15:58;;;;;;;5.90;3.30;;;;;;;18.14;51.93;97959.72;5013620;28;20262;-73
2023/06/02 00:18:26;;;;;;;3.57;3.20;;;;;;;18.03;51.77;97958.91;5013365;28;20669;-74
2023/06/02 00:20:53;;;;;;;4.50;3.67;;;;;;;18.03;50.76;97964.28;5013675;28;20209;-73
2023/06/02 00:23:21;;;;;;;7.10;3.90;;;;;;;17.92;50.40;97959.94;5013549;28;20213;-73
2023/06/02 00:25:48;;;;;;;5.13;3.47;;;;;;;17.95;51.36;97964.81;5013548;28;20227;-73
2023/06/02 00:28:14;;;;;;;5.60;3.93;;;;;;;17.95;50.44;97961.28;5013461;28;20714;-73
2023/06/02 00:30:41;;;;;;;4.10;3.70;;;;;;;17.96;49.64;97955.66;5014696;28;20301;-73
2023/06/02 00:33:07;;;;;;;3.60;3.30;;;;;;;17.93;50.65;97961.59;5017142;28;20569;-73
2023/06/02 00:35:33;;;;;;;4.43;3.73;;;;;;;17.91;50.33;97960.25;5018061;28;20313;-73
2023/06/02 00:38:04;;;;;;;4.77;3.40;;;;;;;17.89;50.21;97951.63;5017304;28;20293;-73
2023/06/02 00:40:30;;;;;;;6.57;3.50;;;;;;;17.86;49.67;97952.13;5017379;28;20190;-73
2023/06/02 00:42:57;;;;;;;7.27;3.70;;;;;;;17.83;50.10;97948.09;5016802;28;20213;-73
2023/06/02 00:45:23;;;;;;;5.77;3.80;;;;;;;17.85;50.04;97962.09;5017116;28;20214;-73
2023/06/02 00:47:50;;;;;;;6.00;3.80;;;;;;;17.76;50.11;97960.19;5017158;28;20253;-73
2023/06/02 00:50:17;;;;;;;5.60;3.73;;;;;;;17.80;50.20;97959.41;5017171;28;20567;-73
2023/06/02 00:52:45;;;;;;;4.67;3.70;;;;;;;17.69;50.48;97960.44;5017384;28;20218;-73
2023/06/02 00:55:12;;;;;;;4.77;3.53;;;;;;;17.73;50.54;97958.84;5016872;28;20666;-73
2023/06/02 00:57:40;;;;;;;3.90;3.50;;;;;;;17.54;50.90;97962.28;5016729;28;20670;-73
2023/06/02 01:00:09;;;;;;;4.17;3.33;;;;;;;17.56;50.72;97960.97;5016828;28;20233;-73
2023/06/02 01:02:35;;;;;;;5.23;3.80;;;;;;;17.53;50.74;97961.50;5016808;28;20210;-73
2023/06/02 01:05:07;;;;;;;5.47;3.70;;;;;;;17.55;51.47;97966.63;5016679;28;20207;-73
2023/06/02 01:07:34;;;;;;;5.63;3.70;;;;;;;17.50;51.37;97962.03;5016604;28;20214;-73
2023/06/02 01:10:04;;;;;;;6.90;3.93;;;;;;;17.47;51.16;97962.53;5016792;28;20210;-73
2023/06/02 01:12:30;;;;;;;4.23;3.83;;;;;;;17.26;51.71;97963.53;5016702;28;20217;-73
2023/06/02 01:14:57;;;;;;;4.43;4.03;;;;;;;17.34;51.46;97968.41;5016366;28;20732;-73
2023/06/02 01:17:30;;;;;;;4.63;4.00;;;;;;;17.36;51.54;97957.38;5016814;28;20234;-73
2023/06/02 01:20:06;;;;;;;5.83;4.43;;;;;;;17.32;51.34;97957.09;5016640;28;20249;-73
2023/06/02 01:22:40;;;;;;;3.90;3.50;;;;;;;17.26;52.18;97960.84;5016860;28;20198;-73
2023/06/02 01:25:24;;;;;;;5.60;3.63;;;;;;;17.24;52.42;97954.13;5016294;28;20244;-73
2023/06/02 01:27:51;;;;;;;4.80;4.17;;;;;;;17.32;51.88;97959.78;5016487;28;20214;-73
2023/06/02 01:30:19;;;;;;;4.27;3.80;;;;;;;17.23;52.45;97953.31;5016431;28;20218;-73
2023/06/02 01:32:58;;;;;;;4.87;3.80;;;;;;;17.06;52.63;97960.75;5016352;28;20214;-73
2023/06/02 01:35:28;;;;;;;5.10;3.83;;;;;;;17.13;52.55;97952.47;5016277;28;20195;-73
2023/06/02 01:37:59;;;;;;;5.77;4.03;;;;;;;17.05;53.08;97956.47;5016282;28;20207;-73
2023/06/02 01:40:29;;;;;;;4.30;3.90;;;;;;;16.85;54.00;97952.88;5016290;28;20199;-73
2023/06/02 01:42:57;;;;;;;4.90;3.90;;;;;;;16.88;54.22;97955.06;5015829;28;20583;-73
2023/06/02 01:45:24;;;;;;;4.13;3.80;;;;;;;16.78;54.52;97960.38;5015721;28;20670;-73
2023/06/02 01:47:50;;;;;;;4.23;3.83;;;;;;;16.81;54.73;97957.97;5016043;28;20238;-73
2023/06/02 01:50:17;;;;;;;4.47;3.80;;;;;;;16.63;55.88;97966.47;5015728;28;20202;-73
2023/06/02 01:52:43;;;;;;;4.57;3.77;;;;;;;16.53;56.10;97963.72;5015688;28;20688;-73
2023/06/02 01:55:10;;;;;;;5.70;4.30;;;;;;;16.58;56.10;97961.06;5016090;28;20202;-73
2023/06/02 01:57:36;;;;;;;6.43;4.00;;;;;;;16.62;55.85;97962.16;5015805;28;20215;-73
2023/06/02 02:00:05;;;;;;;6.63;3.80;;;;;;;16.59;56.05;97960.00;5015850;28;20206;-73
2023/06/02 02:02:31;;;;;;;4.50;4.10;;;;;;;16.49;56.90;97959.09;5015787;28;20210;-73
2023/06/02 02:04:58;;;;;;;5.13;4.10;;;;;;;16.46;56.65;97960.44;5015762;28;20302;-73
2023/06/02 02:07:24;;;;;;;5.03;4.00;;;;;;;16.50;56.45;97966.09;5015488;28;20231;-73
2023/06/02 02:09:50;;;;;;;4.30;3.90;;;;;;;16.46;56.96;97965.00;5015527;28;20227;-76
2023/06/02 02:12:17;;;;;;;4.70;3.93;;;;;;;16.40;57.59;97963.34;5015596;28;20203;-77
2023/06/02 02:14:43;;;;;;;5.10;4.10;;;;;;;16.31;59.21;97967.53;5015584;28;20210;-77
2023/06/02 02:17:10;;;;;;;5.10;4.23;;;;;;;16.28;58.02;97968.06;5015143;28;20728;-77
2023/06/02 02:19:37;;;;;;;5.50;4.20;;;;;;;16.34;57.92;97969.72;5015462;28;20226;-77
2023/06/02 02:22:03;;;;;;;5.90;4.13;;;;;;;16.25;58.97;97973.94;5015667;28;20202;-77
2023/06/02 02:24:29;;;;;;;5.53;3.97;;;;;;;16.25;58.79;97972.06;5015916;28;20218;-76
2023/06/02 02:26:57;;;;;;;5.03;4.33;;;;;;;16.24;58.41;97978.47;5015261;28;20233;-76
2023/06/02 02:29:23;;;;;;;5.90;4.40;;;;;;;16.16;59.24;97978.16;5014966;28;20714;-77
2023/06/02 02:31:50;;;;;;;7.17;4.57;;;;;;;16.00;59.77;97974.53;5015213;28;20221;-76
2023/06/02 02:34:16;;;;;;;7.47;4.70;;;;;;;16.02;59.78;97969.72;5015182;28;20214;-76
2023/06/02 02:36:44;;;;;;;4.87;4.07;;;;;;;15.88;61.61;97975.78;5015782;28;20237;-77
2023/06/02 02:39:11;;;;;;;5.37;4.43;;;;;;;15.96;60.50;97973.44;5015114;28;20198;-77
2023/06/02 02:41:37;;;;;;;4.47;4.03;;;;;;;15.84;61.59;97975.44;5015008;28;20213;-76
2023/06/02 02:44:03;;;;;;;8.47;4.60;;;;;;;15.78;62.12;97971.09;5014938;28;20210;-77
2023/06/02 02:46:30;;;;;;;7.37;4.13;;;;;;;15.76;62.00;97980.47;5014906;28;20230;-76
2023/06/02 02:48:56;;;;;;;5.20;4.10;;;;;;;15.75;61.85;97978.84;5014861;28;20281;-77
2023/06/02 02:51:23;;;;;;;6.70;4.13;;;;;;;15.73;62.53;97973.75;5014917;28;20210;-77
2023/06/02 02:53:49;;;;;;;5.07;4.33;;;;;;;15.62;61.94;97973.91;5014227;28;20215;-77
2023/06/02 02:56:15;;;;;;;4.77;4.10;;;;;;;15.68;62.61;97975.56;5014530;28;20227;-76
2023/06/02 02:58:42;;;;;;;5.60;4.50;;;;;;;15.55;63.64;97979.47;5014653;28;20203;-77
2023/06/02 03:01:15;;;;;;;5.57;4.90;;;;;;;15.55;63.17;97975.94;5014691;28;20211;-77
2023/06/02 03:03:41;;;;;;;5.13;4.53;;;;;;;15.51;64.24;97974.88;5014789;28;20222;-77
2023/06/02 03:06:08;;;;;;;8.17;5.00;;;;;;;15.40;65.15;97973.13;5014233;28;20245;-77
2023/06/02 03:08:35;;;;;;;5.30;4.80;;;;;;;15.41;65.18;97980.09;5014348;28;20227;-76
2023/06/02 03:11:02;;;;;;;4.97;4.47;;;;;;;15.37;65.32;97987.81;5014525;28;20206;-76
2023/06/02 03:13:28;;;;;;;4.83;4.33;;;;;;;15.48;64.57;97988.75;5014462;28;20210;-76
2023/06/02 03:15:54;;;;;;;5.43;4.30;;;;;;;15.37;65.19;97989.72;5014399;28;20233;-76
2023/06/02 03:18:21;;;;;;;5.07;4.17;;;;;;;15.25;66.00;97986.31;5014697;28;20206;-76
2023/06/02 03:20:48;;;;;;;7.23;4.70;;;;;;;15.12;67.49;97992.88;5014018;28;20211;-76
2023/06/02 03:23:15;;;;;;;5.50;4.50;;;;;;;15.21;66.87;97999.41;5013852;28;20696;-77
2023/06/02 03:25:43;;;;;;;5.50;4.50;;;;;;;15.10;67.37;97997.66;5013840;28;20236;-77
2023/06/02 03:28:09;;;;;;;5.33;4.80;;;;;;;15.08;68.25;97998.94;5013778;28;20670;-77
2023/06/02 03:30:36;;;;;;;6.83;5.10;;;;;;;15.25;67.27;98008.53;5014142;28;20213;-77
2023/06/02 03:33:02;;;;;;;8.67;5.27;;;;;;;15.22;67.59;98005.56;5014027;28;20213;-76
2023/06/02 03:35:28;;;;;;;5.57;4.57;;;;;;;14.90;69.26;97999.25;5013961;28;20229;-77
2023/06/02 03:37:55;;;;;;;6.50;4.97;;;;;;;14.99;69.68;98009.28;5013999;28;20210;-77
2023/06/02 03:40:21;;;;;;;7.47;5.57;;;;;;;14.96;69.96;98004.41;5014039;28;20210;-77
2023/06/02 03:42:47;;;;;;;6.53;5.13;;;;;;;14.82;70.97;98007.69;5013479;28;20575;-77
2023/06/02 03:45:14;;;;;;;7.90;5.30;;;;;;;14.81;71.28;98012.25;5014153;28;20211;-77
2023/06/02 03:47:40;;;;;;;7.67;5.20;;;;;;;14.83;71.61;98014.69;5013770;28;20213;-77
2023/06/02 03:50:06;;;;;;;6.77;5.10;;;;;;;14.87;71.77;98013.94;5013778;28;20234;-76
2023/06/02 03:52:33;;;;;;;6.73;5.20;;;;;;;14.70;73.35;98007.00;5013773;28;20214;-77
2023/06/02 03:54:59;;;;;;;7.83;5.53;;;;;;;14.73;73.47;98003.81;5013443;28;20685;-77
2023/06/02 03:57:26;;;;;;;6.90;5.30;;;;;;;14.76;73.02;98006.84;5013392;28;20234;-77
2023/06/02 03:59:53;;;;;;;7.20;5.80;;;;;;;14.76;73.34;98014.88;5013595;28;20562;-77
2023/06/02 04:02:19;;;;;;;7.37;4.77;;;;;;;14.79;74.83;98010.88;5013280;28;20583;-77
2023/06/02 04:04:46;;;;;;;7.40;5.50;;;;;;;14.69;73.79;98010.72;5012360;28;20211;-76
2023/06/02 04:07:13;;;;;;;7.17;5.00;;;;;;;14.78;73.66;98017.28;5012959;28;20266;-77
2023/06/02 04:09:39;;;;;;;7.87;5.83;;;;;;;14.64;73.81;98010.66;5013446;28;20561;-76
2023/06/02 04:12:06;;;;;;;5.77;5.00;;;;;;;14.62;74.27;98010.09;5013645;28;20202;-76
2023/06/02 04:14:34;;;;;;;8.33;6.10;;;;;;;14.58;75.69;98000.94;5013190;28;20676;-76
2023/06/02 04:17:00;;;;;;;8.50;5.90;;;;;;;14.65;74.77;98002.38;5013220;28;20732;-76
2023/06/02 04:19:26;;;;;;;7.23;5.60;;;;;;;14.42;76.59;98018.63;5013552;28;20216;-76
2023/06/02 04:21:54;;;;;;;6.03;5.43;;;;;;;14.44;77.01;98015.69;5012749;28;20206;-77
2023/06/02 04:24:20;;;;;;;6.13;5.33;;;;;;;14.51;76.59;98013.69;5014125;28;20222;-76
2023/06/02 04:26:47;;;;;;;7.47;5.77;;;;;;;14.40;77.70;98020.75;5013520;28;20234;-77
2023/06/02 04:29:13;;;;;;;7.63;6.03;;;;;;;14.40;77.87;98028.75;5013283;28;20226;-76
2023/06/02 04:31:45;;;;;;;7.10;6.40;;;;;;;14.33;77.99;98024.63;5013343;28;20211;-77
2023/06/02 04:34:12;;;;;;;7.47;5.93;;;;;;;14.23;78.91;98032.47;5013341;28;20558;-76
2023/06/02 04:36:40;;;;;;;7.87;5.40;;;;;;;14.37;78.68;98029.25;5013249;28;20248;-77
2023/06/02 04:39:07;;;;;;;9.43;6.20;;;;;;;14.34;79.29;98032.38;5013339;28;20217;-76
2023/06/02 04:41:36;;;;;;;7.37;6.40;;;;;;;14.20;80.17;98040.97;5013055;28;20207;-77
2023/06/02 04:44:04;;;;;;;6.20;5.57;;;;;;;14.18;81.57;98043.03;5012681;28;20215;-76
2023/06/02 04:46:30;;;;;;;6.63;5.87;;;;;;;14.37;79.80;98031.91;5013101;28;20266;-76
2023/06/02 04:48:57;;;;;;;11.03;6.27;;;;;;;14.33;80.92;98046.03;5013093;28;20253;-76
2023/06/02 04:51:27;;;;;;;7.57;6.50;;;;;;;14.55;79.50;98050.41;5013612;28;20238;-77
2023/06/02 04:53:54;;;;;;;7.67;5.97;;;;;;;14.37;80.88;98042.63;5013243;28;20204;-76
2023/06/02 04:56:20;;;;;;;9.37;6.43;;;;;;;14.48;81.74;98048.94;5012895;28;20238;-74
2023/06/02 04:58:47;;;;;;;9.33;6.63;;;;;;;14.55;81.67;98045.03;5012952;28;20218;-73
2023/06/02 05:01:13;;;;;;;10.57;6.63;;;;;;;14.62;81.18;98045.69;5012511;28;20570;-73
2023/06/02 05:03:40;;;;;;;9.07;6.37;;;;;;;14.61;81.40;98052.09;5012536;28;20211;-73
2023/06/02 05:06:07;;;;;;;6.83;6.20;;;;;;;15.02;80.63;98048.94;5012366;28;20247;-74
2023/06/02 05:08:33;;;;;;;8.17;6.70;;;;;;;15.28;79.34;98045.53;5012982;28;20213;-73
2023/06/02 05:11:00;;;;;;;7.10;6.40;;;;;;;15.56;77.71;98053.41;5013000;28;20577;-73
2023/06/02 05:13:27;;;;;;;7.20;6.27;;;;;;;15.72;76.88;98047.19;5014050;28;20214;-73
2023/06/02 05:15:53;;;;;;;7.83;6.93;;;;;;;15.69;77.28;98046.88;5012301;28;20781;-74
2023/06/02 05:18:20;;;;;;;7.50;6.70;;;;;;;16.40;73.38;98047.34;5016091;28;20257;-73
2023/06/02 05:20:46;;;;;;;8.03;6.33;;;;;;;15.72;75.37;98046.38;5016410;28;20260;-73
2023/06/02 05:23:13;;;;;;;7.37;6.27;;;;;;;15.67;77.38;98046.31;5016090;28;20209;-73
2023/06/02 05:25:41;;;;;;;7.37;6.63;;;;;;;16.35;73.81;98051.81;5016160;28;20310;-73
2023/06/02 05:28:07;;;;;;;7.50;6.80;;;;;;;15.78;76.25;98046.16;5014229;28;20635;-73
2023/06/02 05:30:33;;;;;;;8.33;7.17;;;;;;;14.97;80.79;98056.91;5014305;28;20716;-76
2023/06/02 05:33:00;;;;;;;8.90;7.60;;;;;;;15.16;80.44;98060.13;5014220;28;20214;-76
2023/06/02 05:35:26;;;;;;;9.60;6.37;;;;;;;14.90;82.06;98064.31;5014529;28;20210;-76
2023/06/02 05:37:52;;;;;;;8.50;6.63;;;;;;;14.86;83.75;98057.00;5014354;28;20211;-76
2023/06/02 05:40:19;;;;;;;8.67;7.20;;;;;;;14.76;83.56;98054.19;5014477;28;20206;-76
2023/06/02 05:42:45;;;;;;;11.57;7.17;;;;;;;15.13;82.48;98058.75;5015773;28;20211;-76
2023/06/02 05:45:12;;;;;;;7.83;6.70;;;;;;;14.75;84.03;98057.94;5015830;28;20207;-76
2023/06/02 05:47:38;;;;;;;7.77;6.97;;;;;;;14.96;84.68;98060.63;5015660;28;20210;-76
2023/06/02 05:50:07;;;;;;;8.73;6.93;;;;;;;15.40;81.68;98054.31;5015996;28;20234;-76
2023/06/02 05:52:33;;;;;;;8.47;6.93;;;;;;;15.35;81.86;98048.91;5015604;28;20210;-76
2023/06/02 05:55:00;;;;;;;8.00;7.30;;;;;;;15.41;82.48;98061.28;5015843;28;20206;-76
2023/06/02 05:57:26;;;;;;;11.20;7.07;;;;;;;15.60;80.66;98062.56;5015533;28;20234;-76
2023/06/02 05:59:52;;;;;;;9.93;6.77;;;;;;;15.66;80.03;98069.63;5015530;28;20225;-76
2023/06/02 06:02:19;;;;;;;9.50;6.57;;;;;;;15.47;80.94;98060.28;5016317;28;20206;-76
2023/06/02 06:04:45;;;;;;;10.83;7.30;;;;;;;15.07;83.63;98058.91;5015524;28;20211;-76
2023/06/02 06:07:12;;;;;;;8.17;7.00;;;;;;;15.44;82.82;98058.13;5015167;28;20239;-76
2023/06/02 06:09:38;;;;;;;9.23;7.20;;;;;;;15.64;82.04;98068.25;5015091;28;20309;-76
2023/06/02 06:12:05;;;;;;;8.30;6.90;;;;;;;15.71;81.17;98067.00;5015383;28;20207;-73
2023/06/02 06:14:31;;;;;;;10.70;6.77;;;;;;;15.61;82.57;98063.41;5016053;28;20213;-73
2023/06/02 06:16:57;;;;;;;8.23;6.53;;;;;;;15.09;83.08;98064.81;5015240;28;20235;-73
2023/06/02 06:19:24;;;;;;;8.00;7.20;;;;;;;15.09;83.44;98067.50;5015349;28;20198;-73
2023/06/02 06:21:50;;;;;;;8.40;6.67;;;;;;;15.28;83.00;98066.19;5015456;28;20202;-73
2023/06/02 06:24:16;;;;;;;9.13;7.03;;;;;;;15.57;82.95;98071.13;5015220;28;20222;-73
2023/06/02 06:26:43;;;;;;;7.97;7.03;;;;;;;15.88;82.30;98077.66;5015098;28;20586;-73
2023/06/02 06:29:09;;;;;;;8.53;7.53;;;;;;;14.94;83.79;98069.97;5013502;28;20222;-73
2023/06/02 06:31:36;;;;;;;7.40;6.73;;;;;;;15.18;85.38;98080.22;5014933;28;20202;-73
2023/06/02 06:34:02;;;;;;;8.30;6.70;;;;;;;15.45;83.05;98074.97;5014660;28;20669;-73
2023/06/02 06:36:29;;;;;;;8.50;6.80;;;;;;;15.36;82.62;98079.16;5014066;28;20285;-73
2023/06/02 06:38:55;;;;;;;8.30;7.10;;;;;;;15.81;81.54;98085.88;5012726;28;20249;-73
2023/06/02 06:41:22;;;;;;;8.50;6.90;;;;;;;15.89;82.35;98082.75;5012940;28;20207;-73
2023/06/02 06:43:49;;;;;;;8.80;7.07;;;;;;;16.02;81.25;98079.66;5012860;28;20210;-73
2023/06/02 06:46:16;;;;;;;8.87;6.77;;;;;;;16.25;78.88;98078.56;5012759;28;20235;-73
2023/06/02 06:48:42;;;;;;;7.10;6.50;;;;;;;16.15;79.74;98081.94;5012724;28;20266;-73
2023/06/02 06:51:08;;;;;;;7.90;7.10;;;;;;;16.16;77.85;98086.25;5012510;28;20235;-73
2023/06/02 06:53:35;;;;;;;9.17;6.43;;;;;;;16.26;76.96;98086.34;5014332;28;20207;-73
2023/06/02 06:56:02;;;;;;;10.03;7.03;;;;;;;15.84;80.20;98088.03;5014159;28;20231;-73
2023/06/02 06:58:29;;;;;;;8.20;6.20;;;;;;;16.17;77.66;98087.88;5014480;28;20256;-73
2023/06/02 07:00:55;;;;;;;8.73;6.77;;;;;;;16.10;78.48;98099.88;5014524;28;20205;-73
2023/06/02 07:03:22;;;;;;;7.23;6.50;;;;;;;16.07;79.81;98095.00;5014142;28;20207;-73
2023/06/02 07:05:48;;;;;;;8.43;7.10;;;;;;;16.37;78.59;98089.94;5014166;28;20235;-73
2023/06/02 07:08:14;;;;;;;10.27;6.70;;;;;;;15.51;82.63;98096.22;5014125;28;20639;-73
2023/06/02 07:10:41;;;;;;;7.20;6.30;;;;;;;16.14;83.06;98096.41;5014887;28;20376;-74
2023/06/02 07:13:07;;;;;;;7.93;6.90;;;;;;;16.46;80.48;98091.94;5013824;28;20581;-73
2023/06/02 07:15:34;;;;;;;7.03;5.97;;;;;;;16.45;79.00;98101.03;5014298;28;20230;-73
2023/06/02 07:18:00;;;;;;;7.07;6.37;;;;;;;16.67;76.51;98104.47;5013922;28;20682;-73
2023/06/02 07:20:26;;;;;;;7.57;6.80;;;;;;;16.59;75.91;98107.59;5013896;28;20680;-73
2023/06/02 07:22:53;;;;;;;9.00;6.23;;;;;;;16.54;77.04;98099.53;5014242;28;20302;-73
2023/06/02 07:25:19;;;;;;;7.30;6.57;;;;;;;16.49;77.11;98090.59;5013780;28;20681;-73
2023/06/02 07:27:45;;;;;;;7.20;6.50;;;;;;;16.72;77.85;98096.44;5013961;28;20217;-73
2023/06/02 07:30:12;;;;;;;10.40;6.80;;;;;;;16.71;75.83;98094.00;5013778;28;20229;-73
2023/06/02 07:32:38;;;;;;;8.10;6.50;;;;;;;16.60;76.69;98095.81;5014118;28;20215;-73
2023/06/02 07:35:05;;;;;;;7.47;6.73;;;;;;;16.09;77.70;98088.31;5013873;28;20202;-73
2023/06/02 07:37:32;;;;;;;8.07;6.70;;;;;;;16.23;78.79;98089.53;5013876;28;20230;-73
2023/06/02 07:39:58;;;;;;;8.03;6.77;;;;;;;16.29;77.44;98085.81;5013709;28;20226;-73
2023/06/02 07:42:24;;;;;;;7.30;6.67;;;;;;;16.72;77.32;98091.06;5004812;28;20215;-73
2023/06/02 07:44:51;;;;;;;8.77;6.23;;;;;;;16.94;77.60;98089.09;5002332;28;20200;-73
2023/06/02 07:47:17;;;;;;;8.83;6.13;;;;;;;16.96;74.25;98092.31;5003539;28;20222;-73
2023/06/02 07:49:43;;;;;;;7.33;6.30;;;;;;;16.69;75.38;98098.84;5004260;28;20226;-73
2023/06/02 07:52:10;;;;;;;7.20;6.30;;;;;;;16.99;75.28;98097.19;4999015;28;20199;-73
2023/06/02 07:54:36;;;;;;;7.03;6.33;;;;;;;16.86;76.12;98094.13;4993710;28;20207;-73
2023/06/02 07:57:02;;;;;;;10.07;6.10;;;;;;;16.89;74.84;98090.94;4993434;28;20227;-73
2023/06/02 07:59:29;;;;;;;7.67;6.93;;;;;;;17.20;73.73;98090.84;4993950;28;20217;-73
2023/06/02 08:01:55;;;;;;;12.20;6.13;;;;;;;17.38;72.09;98089.63;4994017;28;20214;-73
2023/06/02 08:04:25;;;;;;;8.30;6.27;;;;;;;17.16;73.74;98097.84;4994321;28;20211;-73
2023/06/02 08:06:56;;;;;;;8.27;6.33;;;;;;;17.34;72.52;98085.84;4993865;28;20334;-73
2023/06/02 08:09:24;;;;;;;7.20;6.53;;;;;;;17.59;72.48;98094.03;4994000;28;20198;-73
2023/06/02 08:11:51;;;;;;;8.60;7.00;;;;;;;16.91;73.01;98100.34;4994051;28;20215;-73
2023/06/02 08:14:18;;;;;;;7.50;6.50;;;;;;;16.43;75.16;98094.31;4993921;28;20211;-73
2023/06/02 08:16:45;;;;;;;8.03;6.60;;;;;;;16.60;75.37;98097.69;4993891;28;20246;-73
2023/06/02 08:19:11;;;;;;;7.73;6.93;;;;;;;16.82;74.77;98093.84;4993899;28;20686;-73
2023/06/02 08:21:40;;;;;;;9.33;5.90;;;;;;;17.33;73.49;98097.66;4993863;28;20203;-73
2023/06/02 08:24:06;;;;;;;7.27;6.53;;;;;;;17.34;71.88;98094.72;4993599;28;20212;-73
2023/06/02 08:26:32;;;;;;;8.87;6.57;;;;;;;17.59;70.63;98096.72;4993490;28;20714;-73
2023/06/02 08:28:59;;;;;;;7.33;6.73;;;;;;;17.47;69.94;98094.25;4993881;28;20221;-73
2023/06/02 08:31:26;;;;;;;7.90;6.47;;;;;;;17.74;71.22;98094.91;4993623;28;20238;-73
2023/06/02 08:33:53;;;;;;;6.73;6.13;;;;;;;18.10;69.33;98085.88;4993794;28;20210;-73
2023/06/02 08:36:20;;;;;;;7.53;6.17;;;;;;;17.90;70.66;98083.16;4993588;28;20227;-73
2023/06/02 08:38:51;;;;;;;7.17;6.47;;;;;;;17.76;71.54;98092.78;4993981;28;20214;-73
2023/06/02 08:41:18;;;;;;;7.00;6.30;;;;;;;17.76;70.47;98092.78;4993760;28;20195;-74
2023/06/02 08:43:45;;;;;;;9.13;6.07;;;;;;;18.16;70.77;98081.31;4993369;28;20218;-73
2023/06/02 08:46:16;;;;;;;7.50;6.40;;;;;;;18.27;70.06;98085.66;4992654;28;20235;-73
2023/06/02 08:48:46;;;;;;;7.43;6.73;;;;;;;17.84;69.58;98080.69;4993747;28;20218;-73
2023/06/02 08:51:22;;;;;;;7.10;6.50;;;;;;;18.21;68.77;98081.31;4993852;28;20283;-73
2023/06/02 08:53:48;;;;;;;8.60;6.80;;;;;;;18.52;66.36;98083.00;4997025;28;20244;-73
2023/06/02 08:56:16;;;;;;;7.70;6.23;;;;;;;18.44;68.42;98084.34;4997913;28;20237;-73
2023/06/02 08:58:48;;;;;;;11.73;6.67;;;;;;;18.60;67.05;98080.56;4997392;28;20211;-73
2023/06/02 09:01:15;;;;;;;10.33;6.80;;;;;;;18.57;65.93;98078.44;4997167;28;20218;-73
2023/06/02 09:03:41;;;;;;;7.53;6.80;;;;;;;18.75;65.39;98079.78;4996928;28;20689;-73
2023/06/02 09:06:38;;;;;;;8.27;7.00;;;;;;;18.46;65.36;98087.56;4996772;28;20610;-72
2023/06/02 09:09:05;;;;;;;7.83;7.07;;;;;;;18.44;65.04;98081.66;4988550;28;20211;-73
2023/06/02 09:11:33;;;;;;;7.57;6.87;;;;;;;17.57;68.23;98083.56;4996847;28;20263;-73
2023/06/02 09:14:00;;;;;;;8.30;7.20;;;;;;;18.04;68.16;98083.44;4996415;28;20582;-73
2023/06/02 09:16:40;;;;;;;7.77;6.57;;;;;;;18.57;68.92;98093.78;4996663;28;20793;-73
2023/06/02 09:19:07;;;;;;;8.37;7.57;;;;;;;17.99;68.10;98088.81;4996625;28;20663;-73
2023/06/02 09:21:33;;;;;;;8.83;7.03;;;;;;;18.20;68.69;98077.84;4997001;28;20204;-73
2023/06/02 09:24:02;;;;;;;7.87;7.10;;;;;;;18.49;67.30;98086.22;4997181;28;20211;-73
2023/06/02 09:26:31;;;;;;;8.40;7.07;;;;;;;18.98;66.00;98090.00;4996351;28;20598;-73
2023/06/02 09:29:10;;;;;;;8.30;6.27;;;;;;;19.13;64.98;98093.47;4996389;28;20674;-73
2023/06/02 09:31:46;;;;;;;7.87;6.40;;;;;;;19.09;62.88;98092.41;4996434;28;20625;-73
2023/06/02 09:34:17;;;;;;;7.50;6.10;;;;;;;18.73;65.12;98088.13;4996543;28;20206;-73
2023/06/02 09:36:45;;;;;;;9.23;6.53;;;;;;;19.22;63.42;98088.31;4996155;28;20710;-73
2023/06/02 09:39:11;;;;;;;7.87;6.70;;;;;;;19.16;62.57;98082.16;4996446;28;20222;-73
2023/06/02 09:41:41;;;;;;;7.43;6.83;;;;;;;18.51;65.15;98082.19;4996211;28;20662;-73
2023/06/02 09:44:15;;;;;;;7.97;6.97;;;;;;;19.31;65.33;98075.94;4996421;28;20206;-74
2023/06/02 09:46:45;;;;;;;8.87;6.93;;;;;;;18.91;64.77;98074.09;4996452;28;20231;-74
2023/06/02 09:49:12;;;;;;;7.57;6.73;;;;;;;19.67;61.48;98071.25;4995979;28;20203;-74
2023/06/02 09:51:38;;;;;;;8.13;6.50;;;;;;;19.78;60.81;98079.81;4996207;28;20311;-73
2023/06/02 09:54:07;;;;;;;7.13;6.30;;;;;;;19.51;63.51;98076.69;4996254;28;20208;-73
2023/06/02 09:56:36;;;;;;;7.97;6.47;;;;;;;19.42;63.68;98085.63;4996089;28;20254;-73
2023/06/02 09:59:04;;;;;;;7.83;6.90;;;;;;;19.27;63.03;98088.38;4995939;28;20234;-73
2023/06/02 10:01:31;;;;;;;9.30;6.33;;;;;;;18.74;64.13;98089.72;4996118;28;20219;-73
2023/06/02 10:03:57;;;;;;;7.80;7.00;;;;;;;18.43;65.58;98082.75;4994623;28;20203;-73
2023/06/02 10:06:51;;;;;;;7.73;6.97;;;;;;;19.41;62.91;98078.63;4995615;28;20632;-74
2023/06/02 10:09:42;;;;;;;8.93;6.93;;;;;;;19.62;62.68;98072.06;4995784;28;20643;-74
2023/06/02 10:12:42;;;;;;;8.27;6.30;;;;;;;19.98;62.11;98073.50;4995842;28;20223;-73
2023/06/02 10:15:28;;;;;;;7.87;6.40;;;;;;;20.33;60.66;98075.19;4994650;28;20222;-73
2023/06/02 10:18:01;;;;;;;7.17;6.20;;;;;;;20.12;59.24;98084.53;4995547;28;20191;-73
2023/06/02 10:20:33;;;;;;;7.07;6.37;;;;;;;19.53;61.17;98077.22;4995783;28;20195;-74
2023/06/02 10:23:36;;;;;;;7.27;6.57;;;;;;;20.07;59.21;98071.84;4995809;28;20222;-73
2023/06/02 10:26:21;;;;;;;8.17;6.17;;;;;;;20.56;57.26;98072.63;4995659;28;20227;-74
2023/06/02 10:28:49;;;;;;;7.03;6.33;;;;;;;20.79;56.44;98074.56;4994558;28;20195;-73
2023/06/02 10:31:16;;;;;;;6.47;5.87;;;;;;;20.22;57.18;98076.38;4995620;28;20230;-73
2023/06/02 10:33:46;;;;;;;6.97;5.90;;;;;;;19.67;60.13;98067.47;4995626;28;20222;-73
2023/06/02 10:36:13;;;;;;;6.87;5.70;;;;;;;19.89;62.29;98061.69;4995399;28;20246;-74
2023/06/02 10:38:40;;;;;;;5.90;5.30;;;;;;;20.67;59.15;98059.84;4995401;28;20212;-74
2023/06/02 10:41:07;;;;;;;6.07;5.13;;;;;;;21.18;57.28;98061.81;4995390;28;20203;-74
2023/06/02 10:43:34;;;;;;;6.40;5.33;;;;;;;20.82;56.24;98065.09;4995639;28;20230;-74
2023/06/02 10:46:22;;;;;;;7.03;5.73;;;;;;;20.62;55.38;98057.97;4995204;28;20723;-74
2023/06/02 10:48:49;;;;;;;6.73;5.40;;;;;;;20.72;54.25;98060.59;4995277;28;20194;-73
2023/06/02 10:51:17;;;;;;;8.70;5.30;;;;;;;20.27;58.56;98057.44;4994649;28;20695;-73
2023/06/02 10:54:02;;;;;;;7.60;5.30;;;;;;;20.46;56.28;98058.38;4995127;28;20207;-73
2023/06/02 10:56:38;;;;;;;6.67;5.37;;;;;;;20.58;57.11;98053.44;4994788;28;20235;-73
2023/06/02 10:59:05;;;;;;;6.20;5.03;;;;;;;20.92;56.14;98049.63;5030995;28;20637;-73
2023/06/02 11:01:47;;;;;;;8.10;5.43;;;;;;;20.93;55.90;98045.84;5033899;28;20661;-73
2023/06/02 11:04:38;;;;;;;6.10;5.30;;;;;;;20.15;57.10;98048.88;5031082;28;20297;-73
2023/06/02 11:07:30;;;;;;;6.50;4.73;;;;;;;20.98;55.87;98050.41;5014160;28;20248;-73
2023/06/02 11:09:59;;;;;;;6.43;4.97;;;;;;;20.83;55.52;98047.78;5011284;28;20211;-73
2023/06/02 11:12:50;;;;;;;6.23;5.00;;;;;;;21.19;53.49;98051.78;5014506;28;20558;-73
2023/06/02 11:15:22;;;;;;;7.63;4.80;;;;;;;21.59;53.49;98059.44;5013848;28;20214;-73
2023/06/02 11:17:49;;;;;;;6.70;5.40;;;;;;;20.49;53.58;98047.84;5013881;28;20210;-74
2023/06/02 11:20:17;;;;;;;7.97;4.93;;;;;;;20.93;54.36;98047.75;5014001;28;20670;-74
2023/06/02 11:22:44;;;;;;;7.57;5.10;;;;;;;20.81;52.77;98047.28;5014315;28;20206;-73
2023/06/02 11:25:11;;;;;;;5.93;5.30;;;;;;;20.65;53.66;98043.09;5013886;28;20218;-73
2023/06/02 11:27:48;;;;;;;10.77;4.73;;;;;;;21.00;52.02;98043.63;5013939;28;20213;-73
2023/06/02 11:30:31;;;;;;;6.13;4.60;;;;;;;21.11;51.75;98038.91;5014785;28;20190;-73
2023/06/02 11:32:58;;;;;;;5.03;4.47;;;;;;;21.28;51.19;98036.53;5012974;28;20201;-73
2023/06/02 11:35:27;;;;;;;6.47;4.90;;;;;;;21.49;52.06;98035.22;5012609;28;20218;-73
2023/06/02 11:38:02;;;;;;;9.57;5.00;;;;;;;21.76;50.80;98040.88;5012918;28;20202;-73
2023/06/02 11:40:30;;;;;;;4.80;4.40;;;;;;;21.93;50.96;98024.94;5012510;28;20289;-74